Terminal Aerodrome Forecast
Issued by NWS

Home | Current Version | Previous Version | Text Only | Print | Product List | Glossary On
Versions: 1 2 3 4 5 6 7 8 9 10 11 12 13 14
000
FTUS46 KSTO 080536
TAFSMF
TAF
KSMF 080536Z 0806/0906 15008KT P6SM SCT250
     FM081600 18010KT P6SM SCT100 BKN250
     FM090000 20013KT P6SM BKN250=

USA.gov is the U.S. government's official web portal to all federal, state and local government web resources and services.